createdAt,value
2023-05-25T00:01:54.881Z,99.90
2023-05-25T00:04:27.164Z,99.90
2023-05-25T00:06:55.527Z,99.90
2023-05-25T00:09:23.588Z,99.90
2023-05-25T00:11:52.460Z,99.90
2023-05-25T00:14:21.508Z,99.90
2023-05-25T00:16:49.528Z,99.90
2023-05-25T00:19:19.090Z,99.90
2023-05-25T00:21:48.579Z,99.90
2023-05-25T00:24:16.727Z,99.90
2023-05-25T00:26:44.959Z,99.90
2023-05-25T00:29:14.949Z,99.90
2023-05-25T00:31:42.964Z,99.90
2023-05-25T00:34:11.476Z,99.90
2023-05-25T00:36:43.340Z,99.90
2023-05-25T00:39:11.495Z,99.90
2023-05-25T00:41:41.832Z,99.90
2023-05-25T00:44:10.548Z,99.90
2023-05-25T00:46:39.518Z,99.90
2023-05-25T00:49:08.097Z,99.90
2023-05-25T00:51:37.158Z,99.90
2023-05-25T00:54:07.409Z,99.90
2023-05-25T00:56:41.436Z,99.90
2023-05-25T00:59:13.051Z,99.90
2023-05-25T01:01:42.107Z,99.90
2023-05-25T01:04:13.391Z,99.90
2023-05-25T01:06:45.108Z,99.90
2023-05-25T01:09:17.664Z,99.90
2023-05-25T01:11:49.750Z,99.90
2023-05-25T01:14:21.182Z,99.90
2023-05-25T01:16:49.887Z,99.90
2023-05-25T01:19:18.628Z,99.90
2023-05-25T01:21:56.345Z,99.90
2023-05-25T01:24:32.520Z,99.90
2023-05-25T01:27:05.037Z,99.90
2023-05-25T01:29:36.072Z,99.90
2023-05-25T01:32:05.460Z,99.90
2023-05-25T01:34:34.092Z,99.90
2023-05-25T01:37:03.554Z,99.90
2023-05-25T01:39:31.575Z,99.90
2023-05-25T01:42:01.961Z,99.90
2023-05-25T01:44:31.039Z,99.90
2023-05-25T01:47:04.883Z,99.90
2023-05-25T01:49:40.749Z,99.90
2023-05-25T01:52:19.750Z,99.90
2023-05-25T01:54:52.965Z,99.90
2023-05-25T01:57:21.896Z,99.90
2023-05-25T01:59:52.543Z,99.90
2023-05-25T02:02:21.496Z,99.90
2023-05-25T02:04:50.842Z,99.90
2023-05-25T02:07:20.275Z,99.90
2023-05-25T02:09:48.432Z,99.90
2023-05-25T02:12:16.596Z,99.90
2023-05-25T02:14:46.028Z,99.90
2023-05-25T02:17:14.214Z,99.90
2023-05-25T02:19:42.266Z,99.90
2023-05-25T02:22:10.525Z,99.90
2023-05-25T02:24:40.171Z,99.90
2023-05-25T02:27:08.582Z,99.90
2023-05-25T02:29:36.619Z,99.90
2023-05-25T02:32:04.810Z,99.90
2023-05-25T02:34:32.872Z,99.90
2023-05-25T02:37:02.963Z,99.90
2023-05-25T02:39:31.010Z,99.90
2023-05-25T02:42:01.312Z,99.90
2023-05-25T02:44:29.373Z,99.90
2023-05-25T02:46:57.407Z,99.90
2023-05-25T02:49:25.835Z,99.90
2023-05-25T02:51:54.326Z,99.90
2023-05-25T02:54:22.404Z,99.90
2023-05-25T02:56:50.577Z,99.90
2023-05-25T02:59:20.245Z,99.90
2023-05-25T03:01:48.388Z,99.90
2023-05-25T03:04:16.536Z,99.90
2023-05-25T03:06:45.510Z,99.90
2023-05-25T03:09:13.633Z,99.90
2023-05-25T03:11:41.678Z,99.90
2023-05-25T03:14:10.903Z,99.90
2023-05-25T03:16:40.381Z,99.90
2023-05-25T03:19:10.588Z,99.90
2023-05-25T03:21:38.958Z,99.90
2023-05-25T03:24:07.704Z,99.90
2023-05-25T03:26:35.725Z,99.90
2023-05-25T03:29:03.733Z,99.90
2023-05-25T03:31:31.945Z,99.90
2023-05-25T03:34:01.811Z,99.90
2023-05-25T03:36:30.950Z,99.90
2023-05-25T03:38:59.008Z,99.90
2023-05-25T03:41:27.248Z,99.90
2023-05-25T03:43:55.214Z,99.90
2023-05-25T03:46:23.297Z,99.90
2023-05-25T03:48:51.436Z,99.90
2023-05-25T03:51:22.075Z,99.90
2023-05-25T03:53:50.093Z,99.90
2023-05-25T03:56:18.160Z,99.90
2023-05-25T03:58:46.165Z,99.90
2023-05-25T04:01:14.731Z,99.90
2023-05-25T04:03:42.872Z,99.90
2023-05-25T04:06:11.625Z,99.90
2023-05-25T04:08:41.956Z,99.90
2023-05-25T04:11:09.993Z,99.90
2023-05-25T04:13:40.241Z,99.90
2023-05-25T04:16:09.759Z,99.90
2023-05-25T04:18:38.021Z,99.90
2023-05-25T04:21:06.322Z,99.90
2023-05-25T04:23:35.036Z,99.90
2023-05-25T04:26:06.128Z,99.90
2023-05-25T04:28:34.406Z,99.90
2023-05-25T04:31:02.693Z,99.90
2023-05-25T04:33:31.031Z,99.90
2023-05-25T04:35:59.542Z,99.90
2023-05-25T04:38:28.097Z,99.90
2023-05-25T04:40:57.712Z,99.90
2023-05-25T04:43:27.880Z,99.90
2023-05-25T04:45:56.785Z,99.90
2023-05-25T04:48:25.847Z,99.90
2023-05-25T04:50:55.779Z,99.90
2023-05-25T04:53:24.048Z,99.90
2023-05-25T04:55:52.664Z,99.90
2023-05-25T04:58:20.861Z,99.90
2023-05-25T05:00:52.002Z,99.90
2023-05-25T05:03:21.532Z,99.90
2023-05-25T05:05:49.841Z,99.90
2023-05-25T05:08:17.945Z,99.90
2023-05-25T05:10:46.239Z,99.90
2023-05-25T05:13:15.184Z,99.90
2023-05-25T05:15:43.425Z,99.90
2023-05-25T05:18:14.142Z,99.90
2023-05-25T05:20:42.272Z,99.90
2023-05-25T05:23:10.368Z,99.90
2023-05-25T05:25:39.017Z,99.90
2023-05-25T05:28:07.064Z,99.90
2023-05-25T05:30:35.092Z,99.90
2023-05-25T05:33:03.353Z,99.90
2023-05-25T05:35:33.090Z,99.90
2023-05-25T05:38:01.359Z,99.90
2023-05-25T05:40:29.589Z,99.90
2023-05-25T05:42:57.945Z,99.90
2023-05-25T05:45:26.083Z,99.90
2023-05-25T05:47:54.163Z,99.90
2023-05-25T05:50:22.634Z,99.90
2023-05-25T05:52:53.645Z,99.90
2023-05-25T05:55:22.201Z,99.90
2023-05-25T05:57:50.195Z,99.90
2023-05-25T06:00:19.449Z,99.90
2023-05-25T06:02:47.721Z,99.90
2023-05-25T06:05:16.075Z,99.90
2023-05-25T06:07:44.410Z,99.90
2023-05-25T06:10:13.847Z,99.90
2023-05-25T06:12:42.178Z,99.90
2023-05-25T06:15:12.057Z,99.90
2023-05-25T06:17:40.187Z,99.90
2023-05-25T06:20:09.132Z,99.90
2023-05-25T06:22:37.582Z,99.90
2023-05-25T06:25:06.592Z,99.90
2023-05-25T06:27:35.951Z,99.90
2023-05-25T06:30:04.592Z,99.90
2023-05-25T06:32:32.639Z,99.90
2023-05-25T06:35:00.646Z,99.90
2023-05-25T06:37:35.094Z,99.90
2023-05-25T06:40:03.920Z,99.90
2023-05-25T06:42:32.256Z,99.90
2023-05-25T06:45:01.606Z,99.90
2023-05-25T06:47:31.277Z,99.90
2023-05-25T06:49:59.688Z,99.90
2023-05-25T06:52:29.115Z,99.90
2023-05-25T06:54:57.836Z,99.90
2023-05-25T06:57:25.900Z,99.90
2023-05-25T06:59:53.982Z,99.90
2023-05-25T07:02:23.406Z,99.90
2023-05-25T07:04:51.607Z,99.90
2023-05-25T07:07:19.914Z,99.90
2023-05-25T07:09:48.098Z,99.90
2023-05-25T07:12:16.452Z,99.90
2023-05-25T07:14:48.063Z,99.90
2023-05-25T07:17:16.226Z,99.90
2023-05-25T07:19:46.027Z,99.90
2023-05-25T07:22:15.755Z,99.90
2023-05-25T07:24:43.834Z,99.90
2023-05-25T07:27:11.917Z,99.90
2023-05-25T07:29:40.077Z,99.90
2023-05-25T07:32:08.530Z,99.90
2023-05-25T07:34:36.586Z,99.90
2023-05-25T07:37:06.678Z,99.90
2023-05-25T07:39:35.002Z,99.90
2023-05-25T07:42:02.975Z,99.90
2023-05-25T07:44:31.093Z,99.90
2023-05-25T07:46:59.146Z,99.90
2023-05-25T07:49:27.228Z,99.90
2023-05-25T07:51:55.191Z,99.90
2023-05-25T07:54:24.598Z,99.90
2023-05-25T07:56:52.684Z,99.90
2023-05-25T07:59:20.706Z,99.90
2023-05-25T08:01:48.736Z,99.90
2023-05-25T08:04:16.834Z,99.90
2023-05-25T08:06:45.349Z,99.90
2023-05-25T08:09:13.829Z,99.90
2023-05-25T08:11:45.370Z,99.90
2023-05-25T08:14:13.400Z,99.90
2023-05-25T08:16:41.646Z,99.90
2023-05-25T08:19:10.356Z,99.90
2023-05-25T08:21:39.677Z,99.90
2023-05-25T08:24:08.549Z,99.90
2023-05-25T08:26:52.913Z,99.90
2023-05-25T08:29:23.986Z,99.90
2023-05-25T08:31:52.375Z,99.90
2023-05-25T08:34:20.579Z,99.90
2023-05-25T08:36:48.684Z,99.90
2023-05-25T08:39:16.851Z,99.90
2023-05-25T08:41:46.187Z,99.90
2023-05-25T08:44:15.536Z,99.90
2023-05-25T08:46:48.276Z,99.90
2023-05-25T08:49:17.508Z,99.90
2023-05-25T08:51:50.012Z,99.90
2023-05-25T08:54:20.036Z,99.90
2023-05-25T08:56:51.436Z,99.90
2023-05-25T08:59:27.943Z,99.90
2023-05-25T09:02:01.611Z,99.90
2023-05-25T09:04:31.093Z,99.90
2023-05-25T09:07:09.619Z,99.90
2023-05-25T09:09:39.880Z,99.90
2023-05-25T09:12:09.484Z,99.90
2023-05-25T09:14:39.831Z,99.90
2023-05-25T09:17:09.398Z,99.90
2023-05-25T09:19:37.821Z,99.90
2023-05-25T09:22:15.065Z,99.90
2023-05-25T09:24:44.885Z,99.90
2023-05-25T09:27:18.410Z,99.90
2023-05-25T09:29:48.747Z,99.90
2023-05-25T09:32:19.597Z,99.90
2023-05-25T09:34:48.089Z,99.90
2023-05-25T09:37:19.015Z,99.90
2023-05-25T09:39:47.938Z,99.90
2023-05-25T09:42:16.072Z,99.90
2023-05-25T09:44:44.439Z,99.90
2023-05-25T09:47:14.003Z,99.90
2023-05-25T09:49:44.548Z,99.90
2023-05-25T09:52:13.555Z,99.90
2023-05-25T09:54:44.933Z,99.90
2023-05-25T09:57:13.281Z,99.90
2023-05-25T09:59:41.403Z,99.90
2023-05-25T10:02:09.736Z,99.90
2023-05-25T10:04:38.009Z,99.90
2023-05-25T10:07:08.403Z,99.90
2023-05-25T10:09:41.012Z,99.90
2023-05-25T10:12:09.384Z,99.90
2023-05-25T10:14:39.708Z,99.90
2023-05-25T10:17:11.636Z,99.90
2023-05-25T10:19:46.685Z,99.90
2023-05-25T10:22:22.000Z,99.90
2023-05-25T10:24:56.990Z,99.90
2023-05-25T10:27:28.039Z,99.90
2023-05-25T10:29:58.108Z,99.90
2023-05-25T10:32:29.399Z,99.90
2023-05-25T10:34:58.644Z,99.90
2023-05-25T10:37:29.545Z,99.90
2023-05-25T10:39:59.102Z,99.90
2023-05-25T10:42:28.195Z,99.90
2023-05-25T10:44:56.716Z,99.90
2023-05-25T10:47:25.764Z,99.90
2023-05-25T10:49:56.105Z,99.90
2023-05-25T10:52:29.790Z,99.90
2023-05-25T10:54:58.717Z,99.90
2023-05-25T10:57:27.475Z,99.90
2023-05-25T11:00:01.763Z,99.90
2023-05-25T11:02:30.303Z,99.90
2023-05-25T11:05:31.628Z,99.90
2023-05-25T11:08:01.852Z,99.90
2023-05-25T11:10:54.949Z,99.90
2023-05-25T11:13:40.927Z,99.90
2023-05-25T11:16:21.188Z,99.80
2023-05-25T11:18:57.897Z,98.40
2023-05-25T11:21:45.102Z,97.30
2023-05-25T11:24:16.868Z,96.30
2023-05-25T11:26:56.811Z,96.10
2023-05-25T11:29:27.461Z,95.60
2023-05-25T11:31:56.782Z,94.80
2023-05-25T11:34:25.934Z,93.90
2023-05-25T11:37:01.858Z,93.00
2023-05-25T11:39:32.015Z,91.80
2023-05-25T11:42:06.703Z,91.10
2023-05-25T11:44:36.910Z,90.80
2023-05-25T11:47:10.178Z,89.60
2023-05-25T11:49:42.047Z,87.10
2023-05-25T11:52:10.669Z,86.20
2023-05-25T11:54:41.609Z,85.70
2023-05-25T11:57:16.432Z,84.00
2023-05-25T11:59:50.257Z,82.30
2023-05-25T12:02:18.926Z,81.40
2023-05-25T12:04:56.342Z,82.20
2023-05-25T12:07:25.042Z,81.80
2023-05-25T12:10:05.193Z,80.50
2023-05-25T12:12:39.633Z,80.10
2023-05-25T12:15:09.538Z,79.30
2023-05-25T12:17:38.151Z,77.80
2023-05-25T12:20:07.823Z,77.90
2023-05-25T12:22:36.123Z,76.80
2023-05-25T12:25:07.304Z,76.30
2023-05-25T12:27:36.042Z,75.50
2023-05-25T12:30:05.516Z,75.70
2023-05-25T12:32:33.593Z,75.70
2023-05-25T12:35:06.274Z,75.90
2023-05-25T12:37:35.468Z,75.90
2023-05-25T12:40:17.135Z,75.90
2023-05-25T12:42:45.612Z,75.00
2023-05-25T12:45:13.867Z,74.80
2023-05-25T12:47:47.101Z,75.10
2023-05-25T12:50:16.720Z,75.50
2023-05-25T12:52:46.554Z,75.40
2023-05-25T12:55:25.807Z,75.20
2023-05-25T12:57:54.321Z,75.30
2023-05-25T13:00:23.715Z,76.40
2023-05-25T13:02:52.122Z,75.80
2023-05-25T13:05:21.983Z,73.80
2023-05-25T13:07:50.555Z,72.20
2023-05-25T13:10:19.200Z,72.00
2023-05-25T13:12:49.984Z,72.00
2023-05-25T13:15:21.207Z,72.20
2023-05-25T13:17:50.501Z,72.80
2023-05-25T13:20:20.344Z,72.90
2023-05-25T13:22:50.523Z,73.20
2023-05-25T13:25:18.668Z,73.30
2023-05-25T13:27:49.725Z,73.30
2023-05-25T13:30:18.003Z,73.70
2023-05-25T13:32:48.038Z,74.00
2023-05-25T13:35:23.313Z,74.00
2023-05-25T13:37:51.942Z,74.20
2023-05-25T13:40:20.271Z,73.60
2023-05-25T13:42:49.929Z,72.40
2023-05-25T13:45:18.195Z,71.50
2023-05-25T13:47:46.377Z,71.30
2023-05-25T13:50:14.530Z,70.30
2023-05-25T13:52:42.811Z,68.70
2023-05-25T13:55:11.539Z,67.80
2023-05-25T13:57:39.708Z,66.80
2023-05-25T14:00:10.751Z,65.20
2023-05-25T14:02:38.884Z,64.00
2023-05-25T14:05:07.906Z,63.10
2023-05-25T14:07:36.112Z,62.50
2023-05-25T14:10:04.681Z,60.80
2023-05-25T14:12:34.084Z,59.80
2023-05-25T14:15:02.281Z,59.60
2023-05-25T14:17:31.680Z,60.60
2023-05-25T14:20:00.404Z,62.00
2023-05-25T14:22:28.506Z,62.70
2023-05-25T14:24:56.762Z,63.60
2023-05-25T14:27:25.148Z,63.60
2023-05-25T14:29:53.558Z,63.20
2023-05-25T14:32:21.620Z,61.50
2023-05-25T14:34:51.002Z,60.30
2023-05-25T14:37:19.025Z,59.20
2023-05-25T14:39:47.104Z,59.20
2023-05-25T14:42:15.917Z,57.90
2023-05-25T14:44:43.941Z,57.40
2023-05-25T14:47:12.299Z,57.10
2023-05-25T14:49:40.571Z,57.70
2023-05-25T14:52:09.998Z,58.30
2023-05-25T14:54:43.984Z,58.80
2023-05-25T14:57:12.518Z,59.10
2023-05-25T14:59:40.605Z,59.40
2023-05-25T15:02:08.889Z,59.60
2023-05-25T15:04:37.482Z,59.90
2023-05-25T15:07:06.160Z,60.60
2023-05-25T15:09:36.791Z,61.30
2023-05-25T15:12:05.242Z,61.70
2023-05-25T15:14:33.198Z,60.70
2023-05-25T15:17:01.451Z,60.10
2023-05-25T15:19:29.425Z,59.20
2023-05-25T15:21:57.461Z,58.50
2023-05-25T15:24:25.610Z,57.80
2023-05-25T15:26:55.056Z,57.70
2023-05-25T15:29:23.101Z,58.00
2023-05-25T15:31:53.026Z,58.50
2023-05-25T15:34:21.191Z,59.10
2023-05-25T15:36:49.224Z,59.50
2023-05-25T15:39:17.281Z,60.10
2023-05-25T15:41:45.452Z,60.90
2023-05-25T15:44:14.894Z,61.40
2023-05-25T15:46:42.999Z,61.90
2023-05-25T15:49:12.064Z,62.20
2023-05-25T15:51:41.929Z,62.40
2023-05-25T15:54:13.479Z,62.70
2023-05-25T15:56:42.754Z,63.10
2023-05-25T15:59:12.295Z,62.90
2023-05-25T16:01:42.142Z,62.40
2023-05-25T16:04:10.324Z,61.90
2023-05-25T16:06:38.566Z,61.30
2023-05-25T16:09:06.757Z,61.10
2023-05-25T16:11:34.883Z,60.90
2023-05-25T16:14:03.017Z,60.70
2023-05-25T16:16:31.166Z,60.60
2023-05-25T16:19:00.654Z,60.60
2023-05-25T16:21:28.742Z,60.50
2023-05-25T16:23:56.748Z,60.60
2023-05-25T16:26:25.030Z,60.60
2023-05-25T16:28:53.083Z,60.30
2023-05-25T16:31:21.414Z,60.10
2023-05-25T16:33:49.395Z,60.20
2023-05-25T16:36:18.815Z,60.30
2023-05-25T16:38:47.080Z,60.20
2023-05-25T16:41:15.157Z,60.30
2023-05-25T16:43:43.133Z,60.30
2023-05-25T16:46:11.586Z,60.20
2023-05-25T16:48:39.672Z,59.80
2023-05-25T16:51:08.261Z,59.70
2023-05-25T16:53:37.825Z,59.50
2023-05-25T16:56:06.234Z,59.40
2023-05-25T16:58:34.386Z,59.10
2023-05-25T17:01:02.580Z,58.70
2023-05-25T17:03:30.702Z,58.70
2023-05-25T17:05:59.060Z,58.90
2023-05-25T17:08:27.341Z,59.10
2023-05-25T17:10:56.819Z,59.40
2023-05-25T17:13:25.068Z,59.40
2023-05-25T17:15:53.377Z,59.20
2023-05-25T17:18:22.714Z,59.00
2023-05-25T17:20:50.700Z,59.00
2023-05-25T17:23:18.703Z,59.10
2023-05-25T17:25:47.281Z,59.30
2023-05-25T17:28:16.873Z,59.50
2023-05-25T17:30:44.895Z,59.80
2023-05-25T17:33:13.206Z,60.10
2023-05-25T17:35:41.226Z,60.40
2023-05-25T17:38:09.357Z,60.70
2023-05-25T17:40:37.429Z,61.20
2023-05-25T17:43:05.449Z,61.70
2023-05-25T17:45:34.993Z,62.30
2023-05-25T17:48:03.450Z,62.90
2023-05-25T17:50:31.726Z,63.10
2023-05-25T17:52:59.814Z,63.70
2023-05-25T17:55:28.272Z,64.30
2023-05-25T17:57:56.507Z,64.60
2023-05-25T18:00:25.953Z,65.10
2023-05-25T18:02:55.701Z,65.50
2023-05-25T18:05:23.900Z,65.80
2023-05-25T18:07:52.100Z,66.30
2023-05-25T18:10:20.074Z,66.80
2023-05-25T18:12:52.302Z,67.40
2023-05-25T18:15:20.538Z,68.10
2023-05-25T18:17:48.597Z,68.70
2023-05-25T18:20:18.300Z,69.30
2023-05-25T18:22:46.555Z,70.00
2023-05-25T18:25:14.604Z,70.70
2023-05-25T18:27:42.794Z,71.30
2023-05-25T18:30:11.794Z,71.80
2023-05-25T18:32:39.902Z,72.50
2023-05-25T18:35:08.996Z,72.90
2023-05-25T18:37:38.354Z,73.40
2023-05-25T18:40:07.402Z,73.90
2023-05-25T18:42:35.837Z,74.30
2023-05-25T18:45:04.019Z,74.70
2023-05-25T18:47:32.401Z,75.00
2023-05-25T18:50:00.451Z,75.40
2023-05-25T18:52:28.480Z,75.70
2023-05-25T18:54:57.846Z,76.10
2023-05-25T18:57:25.851Z,76.30
2023-05-25T18:59:54.016Z,76.60
2023-05-25T19:02:22.378Z,76.90
2023-05-25T19:04:50.708Z,77.10
2023-05-25T19:07:18.818Z,77.30
2023-05-25T19:09:48.269Z,77.30
2023-05-25T19:12:17.678Z,77.20
2023-05-25T19:14:45.721Z,77.30
2023-05-25T19:17:13.814Z,77.20
2023-05-25T19:19:41.896Z,77.20
2023-05-25T19:22:10.504Z,77.30
2023-05-25T19:24:42.399Z,77.50
2023-05-25T19:27:10.958Z,77.50
2023-05-25T19:29:40.354Z,77.70
2023-05-25T19:32:08.482Z,77.80
2023-05-25T19:34:36.988Z,78.00
2023-05-25T19:39:38.549Z,78.40
2023-05-25T19:42:06.859Z,78.60
2023-05-25T19:44:34.887Z,78.70
2023-05-25T19:47:04.509Z,78.90
2023-05-25T19:49:32.577Z,79.20
2023-05-25T19:52:00.827Z,79.40
2023-05-25T19:54:28.862Z,79.60
2023-05-25T19:56:57.324Z,80.60
2023-05-25T19:59:27.906Z,80.00
2023-05-25T20:01:56.962Z,80.30
2023-05-25T20:04:26.989Z,80.40
2023-05-25T20:06:55.265Z,80.60
2023-05-25T20:09:30.075Z,80.80
2023-05-25T20:11:59.062Z,81.00
2023-05-25T20:14:27.385Z,81.20
2023-05-25T20:16:56.094Z,81.40
2023-05-25T20:19:24.354Z,81.60
2023-05-25T20:21:53.793Z,81.90
2023-05-25T20:24:22.190Z,82.30
2023-05-25T20:26:51.028Z,82.60
2023-05-25T20:29:19.118Z,83.10
2023-05-25T20:31:47.470Z,83.70
2023-05-25T20:34:15.682Z,84.20
2023-05-25T20:36:43.849Z,84.70
2023-05-25T20:39:13.263Z,85.10
2023-05-25T20:41:41.247Z,85.50
2023-05-25T20:44:10.100Z,85.70
2023-05-25T20:46:38.296Z,85.90
2023-05-25T20:49:06.998Z,86.00
2023-05-25T20:51:35.247Z,86.20
2023-05-25T20:54:03.260Z,86.40
2023-05-25T20:56:32.632Z,86.60
2023-05-25T20:59:00.836Z,87.20
2023-05-25T21:01:29.576Z,87.60
2023-05-25T21:03:57.749Z,87.60
2023-05-25T21:06:26.501Z,87.60
2023-05-25T21:08:54.567Z,87.70
2023-05-25T21:11:23.320Z,87.80
2023-05-25T21:13:52.676Z,87.90
2023-05-25T21:16:20.916Z,88.10
2023-05-25T21:18:48.988Z,88.40
2023-05-25T21:21:17.062Z,88.50
2023-05-25T21:23:45.086Z,89.40
2023-05-25T21:26:13.120Z,89.90
2023-05-25T21:28:41.133Z,90.10
2023-05-25T21:31:10.624Z,90.20
2023-05-25T21:33:40.075Z,90.30
2023-05-25T21:36:08.848Z,90.40
2023-05-25T21:38:36.901Z,90.40
2023-05-25T21:41:04.891Z,90.40
2023-05-25T21:43:33.027Z,90.40
2023-05-25T21:46:01.121Z,90.50
2023-05-25T21:48:30.463Z,90.50
2023-05-25T21:50:58.477Z,90.60
2023-05-25T21:53:26.678Z,90.70
2023-05-25T21:55:54.682Z,90.80
2023-05-25T21:58:22.712Z,90.90
2023-05-25T22:00:50.837Z,90.90
2023-05-25T22:03:19.281Z,91.00
2023-05-25T22:05:49.082Z,91.10
2023-05-25T22:08:17.451Z,91.20
2023-05-25T22:10:45.992Z,91.20
2023-05-25T22:13:14.006Z,91.30
2023-05-25T22:15:41.988Z,91.30
2023-05-25T22:18:10.268Z,91.40
2023-05-25T22:20:41.430Z,91.50
2023-05-25T22:23:13.574Z,91.50
2023-05-25T22:25:41.641Z,91.60
2023-05-25T22:28:09.743Z,91.60
2023-05-25T22:30:37.759Z,91.70
2023-05-25T22:33:05.819Z,91.80
2023-05-25T22:35:33.891Z,91.80
2023-05-25T22:38:02.079Z,91.90
2023-05-25T22:40:31.474Z,92.00
2023-05-25T22:42:59.473Z,92.10
2023-05-25T22:45:27.650Z,92.20
2023-05-25T22:47:56.064Z,92.20
2023-05-25T22:50:24.107Z,92.20
2023-05-25T22:52:52.102Z,92.20
2023-05-25T22:55:20.305Z,92.20
2023-05-25T22:57:49.723Z,92.10
2023-05-25T23:00:18.249Z,92.10
2023-05-25T23:02:46.405Z,92.10
2023-05-25T23:05:14.447Z,92.10
2023-05-25T23:07:43.758Z,92.20
2023-05-25T23:10:12.649Z,92.20
2023-05-25T23:12:41.461Z,92.30
2023-05-25T23:15:12.966Z,92.40
2023-05-25T23:17:41.001Z,92.40
2023-05-25T23:20:10.661Z,92.40
2023-05-25T23:22:38.878Z,92.40
2023-05-25T23:25:07.929Z,92.50
2023-05-25T23:27:36.008Z,92.50
2023-05-25T23:30:04.111Z,92.60
2023-05-25T23:32:33.737Z,92.60
2023-05-25T23:35:01.817Z,92.70
2023-05-25T23:37:29.826Z,92.80
2023-05-25T23:39:57.820Z,92.80
2023-05-25T23:42:28.177Z,92.90
2023-05-25T23:44:56.180Z,93.00
2023-05-25T23:47:24.383Z,93.00
2023-05-25T23:49:54.074Z,93.00
2023-05-25T23:52:22.264Z,93.10
2023-05-25T23:54:51.033Z,93.10
2023-05-25T23:57:19.115Z,93.20
2023-05-25T23:59:47.123Z,93.30
